Time;durP1;ratioP1;P1;durP2;ratioP2;P2;SDS_P1;SDS_P2;PMS_P1;PMS_P2;Temp;Humidity;BMP_temperature;BMP_pressure;BME280_temperature;BME280_humidity;BME280_pressure;Samples;Min_cycle;Max_cycle;Signal;HPM_P1;HPM_P2
2022/04/18 00:02:28;;;;;;;11.75;8.02;;;;;;;16.15;48.30;101885.13;5008697;28;20040;-60
2022/04/18 00:04:55;;;;;;;11.80;8.32;;;;;;;16.12;48.18;101877.25;5009195;28;20067;-60
2022/04/18 00:07:20;;;;;;;10.30;6.97;;;;;;;16.13;47.97;101879.00;5019541;28;20017;-60
2022/04/18 00:09:46;;;;;;;11.60;7.43;;;;;;;16.12;48.26;101878.13;5011288;28;20157;-60
2022/04/18 00:12:11;;;;;;;11.00;7.40;;;;;;;16.13;48.26;101873.81;5013422;28;20030;-60
2022/04/18 00:14:37;;;;;;;10.90;6.90;;;;;;;16.12;48.46;101867.72;5011834;28;20030;-60
2022/04/18 00:17:09;;;;;;;11.43;7.57;;;;;;;16.11;48.25;101865.09;5016555;28;20050;-60
2022/04/18 00:19:36;;;;;;;13.40;8.10;;;;;;;16.10;47.71;101869.41;5015743;28;20064;-60
2022/04/18 00:22:06;;;;;;;9.23;6.57;;;;;;;16.10;48.08;101869.41;4995698;28;20022;-60
2022/04/18 00:24:31;;;;;;;11.55;7.70;;;;;;;16.10;48.18;101869.41;5011450;28;20099;-60
2022/04/18 00:26:57;;;;;;;11.73;8.30;;;;;;;16.10;47.66;101865.91;5016471;28;20061;-60
2022/04/18 00:29:23;;;;;;;10.65;7.95;;;;;;;16.10;47.73;101865.91;5013973;28;20049;-60
2022/04/18 00:31:49;;;;;;;12.20;8.00;;;;;;;16.08;47.96;101865.03;5013193;28;20026;-60
2022/04/18 00:34:15;;;;;;;12.48;7.68;;;;;;;16.08;47.74;101868.50;5013174;28;20116;-60
2022/04/18 00:36:41;;;;;;;13.68;8.25;;;;;;;16.06;47.67;101869.31;5019708;28;20385;-60
2022/04/18 00:39:08;;;;;;;11.93;7.40;;;;;;;16.08;48.08;101873.69;5012044;28;20048;-60
2022/04/18 00:41:34;;;;;;;12.73;8.23;;;;;;;16.07;47.59;101871.06;5015438;28;20280;-60
2022/04/18 00:44:00;;;;;;;13.80;8.30;;;;;;;16.07;47.08;101871.94;5012833;28;20034;-60
2022/04/18 00:46:31;;;;;;;9.82;6.85;;;;;;;16.07;47.13;101866.72;5015032;28;20721;-60
2022/04/18 00:48:56;;;;;;;10.02;6.80;;;;;;;16.04;47.16;101864.06;5012808;28;20030;-60
2022/04/18 00:51:25;;;;;;;11.35;6.50;;;;;;;16.06;47.93;101871.91;5010846;28;20048;-60
2022/04/18 00:53:56;;;;;;;11.02;6.25;;;;;;;16.06;47.79;101867.59;5012914;28;20050;-60
2022/04/18 00:56:25;;;;;;;9.65;7.15;;;;;;;16.04;47.42;101865.81;5014081;28;20029;-60
2022/04/18 00:58:51;;;;;;;10.52;7.15;;;;;;;16.04;47.22;101858.88;5013513;28;20030;-60
2022/04/18 01:01:19;;;;;;;9.85;6.35;;;;;;;16.03;47.66;101864.03;5014493;28;20014;-60
2022/04/18 01:03:44;;;;;;;;;;;;;;;16.15;47.70;101866.03;5010625;28;20450;-60
2022/04/18 01:06:16;;;;;;;10.30;6.63;;;;;;;16.06;46.99;101858.91;5009902;28;19909;-60
2022/04/18 01:08:43;;;;;;;10.18;6.30;;;;;;;16.01;46.55;101856.22;5011583;28;20056;-60
2022/04/18 01:11:12;;;;;;;9.95;6.10;;;;;;;16.01;47.41;101858.81;5012552;28;20065;-60
2022/04/18 01:13:58;;;;;;;9.65;6.55;;;;;;;16.01;47.56;101848.41;5013221;28;20040;-60
2022/04/18 01:16:25;;;;;;;8.57;6.23;;;;;;;16.01;47.28;101848.41;5016464;28;20037;-60
2022/04/18 01:18:57;;;;;;;12.68;6.75;;;;;;;16.01;47.24;101848.41;5016003;28;20074;-60
2022/04/18 01:21:22;;;;;;;9.32;5.75;;;;;;;16.00;46.07;101853.53;5016288;28;20032;-60
2022/04/18 01:28:58;;;;;;;9.48;5.78;;;;;;;16.01;47.07;101848.41;5012033;28;20037;-60
2022/04/18 01:29:36;;;;;;;9.38;6.25;;;;;;;15.98;46.38;101853.53;5014211;28;20044;-60
2022/04/18 01:32:01;;;;;;;9.73;6.45;;;;;;;15.96;46.01;101844.81;5016283;28;20029;-60
2022/04/18 01:34:27;;;;;;;9.65;6.25;;;;;;;15.98;46.28;101845.72;5017766;28;20044;-60
2022/04/18 01:36:53;;;;;;;9.18;5.90;;;;;;;15.94;45.45;101847.34;5005948;28;20029;-60
2022/04/18 01:39:25;;;;;;;9.52;6.35;;;;;;;15.95;46.30;101854.31;5009333;28;20025;-60
2022/04/18 01:41:50;;;;;;;9.52;6.05;;;;;;;15.95;46.20;101858.66;5010352;28;20018;-60
2022/04/18 01:44:17;;;;;;;9.95;6.10;;;;;;;15.96;45.95;101850.03;5010896;28;20040;-60
2022/04/18 01:46:45;;;;;;;11.27;6.60;;;;;;;15.94;46.00;101851.69;5012721;28;20109;-60
2022/04/18 01:49:10;;;;;;;8.63;5.88;;;;;;;15.92;45.56;101848.16;5011490;28;20026;-60
2022/04/18 01:51:38;;;;;;;8.52;5.75;;;;;;;15.92;45.93;101854.25;4992764;28;20041;-60
2022/04/18 01:54:04;;;;;;;9.45;6.10;;;;;;;15.92;45.50;101849.06;5012653;28;20045;-60
2022/04/18 01:56:32;;;;;;;8.20;5.85;;;;;;;15.92;46.27;101848.16;5013462;28;20071;-60
2022/04/18 01:58:57;;;;;;;7.30;5.22;;;;;;;15.92;46.07;101840.38;5008790;28;20060;-60
2022/04/18 02:01:23;;;;;;;8.23;5.65;;;;;;;15.91;45.04;101842.09;5012002;28;20112;-60
2022/04/18 02:03:48;;;;;;;9.00;5.80;;;;;;;15.91;45.41;101830.84;5012645;28;20378;-60
2022/04/18 02:06:20;;;;;;;8.63;5.88;;;;;;;15.90;45.13;101831.69;5019244;28;20056;-60
2022/04/18 02:08:57;;;;;;;9.48;5.85;;;;;;;15.91;45.30;101836.03;5014880;28;20187;-60
2022/04/18 02:11:23;;;;;;;8.68;5.57;;;;;;;15.90;45.84;101829.94;5013281;28;20056;-60
2022/04/18 02:13:48;;;;;;;9.43;5.75;;;;;;;15.90;45.11;101829.94;5015962;28;20401;-60
2022/04/18 02:16:13;;;;;;;8.27;5.35;;;;;;;15.88;44.89;101831.66;5014247;28;20021;-60
2022/04/18 02:18:39;;;;;;;10.10;5.15;;;;;;;15.89;45.27;101837.72;5011453;28;20032;-60
2022/04/18 02:21:04;;;;;;;8.32;5.45;;;;;;;15.88;45.43;101831.66;5015652;28;20030;-60
2022/04/18 02:23:30;;;;;;;7.57;4.90;;;;;;;15.87;45.36;101834.19;5014072;28;20037;-62
2022/04/18 02:25:55;;;;;;;9.27;5.20;;;;;;;15.88;45.22;101828.16;5014665;28;20490;-60
2022/04/18 02:28:21;;;;;;;8.02;5.30;;;;;;;15.87;45.06;101823.78;5013268;28;20411;-60
2022/04/18 02:30:47;;;;;;;8.85;5.43;;;;;;;15.86;44.44;101827.25;5015097;28;20526;-60
2022/04/18 02:33:12;;;;;;;8.45;5.50;;;;;;;15.86;44.89;101824.66;5013620;28;20055;-60
2022/04/18 02:35:43;;;;;;;8.00;5.30;;;;;;;15.86;45.24;101827.25;5015827;28;20583;-60
2022/04/18 02:38:10;;;;;;;8.82;5.35;;;;;;;15.84;44.92;101824.63;5014470;28;20041;-60
2022/04/18 02:40:35;;;;;;;7.60;4.82;;;;;;;15.85;44.84;101822.88;5015690;28;20025;-60
2022/04/18 02:43:01;;;;;;;6.90;4.90;;;;;;;15.85;44.82;101820.28;5013340;28;20563;-60
2022/04/18 02:45:29;;;;;;;6.63;4.50;;;;;;;15.83;44.85;101817.66;5013392;28;20454;-60
2022/04/18 02:47:54;;;;;;;7.20;4.88;;;;;;;15.83;44.92;101811.56;5009233;28;20016;-60
2022/04/18 02:50:20;;;;;;;8.98;5.18;;;;;;;15.81;44.71;101808.94;5011048;28;20364;-61
2022/04/18 02:52:45;;;;;;;7.20;4.85;;;;;;;15.82;44.63;101810.69;5007374;28;20029;-60
2022/04/18 02:55:11;;;;;;;8.15;4.50;;;;;;;15.83;44.80;101803.78;5108946;22;20747;-60
2022/04/18 02:57:37;;;;;;;7.53;4.57;;;;;;;15.80;44.39;101800.25;5033823;28;20021;-60
2022/04/18 03:00:03;;;;;;;7.20;4.32;;;;;;;15.82;44.50;101799.44;5024200;28;20037;-60
2022/04/18 03:02:28;;;;;;;6.70;4.53;;;;;;;15.80;44.31;101797.63;5023420;28;20029;-60
2022/04/18 03:04:54;;;;;;;6.18;4.50;;;;;;;15.80;44.12;101792.44;5023842;28;20376;-60
2022/04/18 03:07:20;;;;;;;7.80;4.53;;;;;;;15.78;44.23;101788.91;5023158;28;20057;-60
2022/04/18 03:09:46;;;;;;;6.20;4.25;;;;;;;15.78;44.27;101788.91;5020259;28;20017;-60
2022/04/18 03:12:12;;;;;;;7.18;4.50;;;;;;;15.76;43.70;101780.22;5021088;28;20217;-60
2022/04/18 03:14:37;;;;;;;7.55;4.40;;;;;;;15.77;44.17;101787.16;5019649;28;20029;-60
2022/04/18 03:17:07;;;;;;;7.70;4.65;;;;;;;15.76;43.88;101785.41;5022414;28;20035;-60
2022/04/18 03:19:33;;;;;;;8.05;4.80;;;;;;;15.76;43.59;101782.81;5018749;28;20029;-60
2022/04/18 03:21:59;;;;;;;5.82;4.20;;;;;;;15.75;43.86;101786.25;5020813;28;20037;-60
2022/04/18 03:24:31;;;;;;;9.20;4.28;;;;;;;15.75;43.53;101783.66;5021731;28;20105;-60
2022/04/18 03:27:03;;;;;;;7.13;4.68;;;;;;;15.74;43.62;101781.91;5017267;28;20052;-60
2022/04/18 03:29:31;;;;;;;6.32;3.65;;;;;;;15.74;43.74;101784.50;5015473;28;20450;-60
2022/04/18 03:31:57;;;;;;;7.13;4.45;;;;;;;15.74;43.57;101781.03;5019544;28;20076;-60
2022/04/18 03:34:26;;;;;;;7.05;4.68;;;;;;;15.75;43.59;101782.75;5017309;28;20113;-60
2022/04/18 03:39:50;;;;;;;6.10;3.95;;;;;;;15.72;43.53;101791.38;5031401;28;20099;-60
2022/04/18 03:42:19;;;;;;;6.72;4.20;;;;;;;15.71;43.61;101789.63;5031226;28;20104;-60
2022/04/18 03:44:46;;;;;;;6.53;4.30;;;;;;;15.70;43.48;101782.69;5031323;28;20074;-60
2022/04/18 03:47:13;;;;;;;6.45;3.92;;;;;;;15.69;43.41;101788.72;5031217;28;20017;-60
2022/04/18 03:49:40;;;;;;;7.28;4.38;;;;;;;15.70;43.48;101795.66;5034167;28;22371;-60
2022/04/18 03:52:06;;;;;;;6.13;3.92;;;;;;;15.68;43.36;101786.94;5033699;28;20021;-60
2022/04/18 03:54:34;;;;;;;6.85;4.30;;;;;;;15.68;43.15;101788.69;5033914;28;20037;-60
2022/04/18 03:57:01;;;;;;;7.70;4.60;;;;;;;15.67;43.20;101792.97;5032697;28;20084;-60
2022/04/18 03:59:27;;;;;;;7.80;4.40;;;;;;;15.67;43.12;101784.31;5033240;28;20102;-60
2022/04/18 04:01:54;;;;;;;6.53;4.00;;;;;;;15.68;43.18;101779.16;5031375;28;21101;-60
2022/04/18 04:04:19;;;;;;;6.13;3.83;;;;;;;15.68;42.87;101783.47;5035176;28;20033;-60
2022/04/18 04:06:44;;;;;;;7.53;4.43;;;;;;;15.66;42.58;101788.66;5030175;28;20032;-60
2022/04/18 04:09:10;;;;;;;6.80;4.07;;;;;;;15.65;42.85;101786.88;5033118;28;20021;-60
2022/04/18 04:11:36;;;;;;;7.25;4.07;;;;;;;15.65;42.62;101784.28;5029269;28;20009;-60
2022/04/18 04:14:01;;;;;;;7.13;4.30;;;;;;;15.66;42.81;101779.94;5034018;28;20037;-60
2022/04/18 04:16:26;;;;;;;6.00;3.67;;;;;;;15.65;42.81;101776.50;5028162;28;20017;-60
2022/04/18 04:18:53;;;;;;;7.25;3.95;;;;;;;15.64;42.75;101775.59;5031243;28;20091;-60
2022/04/18 04:21:20;;;;;;;5.93;3.70;;;;;;;15.65;42.54;101771.28;5028434;28;20096;-60
2022/04/18 04:23:45;;;;;;;5.97;3.53;;;;;;;15.64;42.47;101780.78;5025933;28;22341;-60
2022/04/18 04:26:11;;;;;;;6.68;4.15;;;;;;;15.63;42.36;101772.97;5027574;28;20124;-60
2022/04/18 04:28:36;;;;;;;6.35;4.10;;;;;;;15.63;42.21;101770.38;5025842;28;20634;-60
2022/04/18 04:31:05;;;;;;;7.25;3.75;;;;;;;15.62;42.39;101771.19;5023834;28;20010;-60
2022/04/18 04:33:31;;;;;;;4.90;3.63;;;;;;;15.61;42.50;101778.13;5023796;28;20037;-60
2022/04/18 04:36:00;;;;;;;6.00;3.33;;;;;;;15.63;42.33;101770.38;5025477;28;20025;-60
2022/04/18 04:38:26;;;;;;;5.93;3.97;;;;;;;15.61;42.14;101775.53;5022902;28;20060;-60
2022/04/18 04:43:20;;;;;;;;;;;;;;;15.73;43.15;101779.28;5016840;28;20053;-60
2022/04/18 04:45:45;;;;;;;6.55;3.75;;;;;;;15.61;41.62;101779.88;5016542;28;19920;-60
2022/04/18 04:48:12;;;;;;;5.55;3.30;;;;;;;15.60;42.26;101788.50;5016284;28;20044;-61
2022/04/18 04:50:39;;;;;;;5.37;3.20;;;;;;;15.59;42.15;101782.41;5017722;28;20040;-60
2022/04/18 04:53:06;;;;;;;5.78;3.80;;;;;;;15.59;41.83;101786.72;5016747;28;20261;-60
2022/04/18 04:55:31;;;;;;;4.65;3.30;;;;;;;15.58;42.03;101785.88;5019505;28;20042;-60
2022/04/18 04:57:57;;;;;;;6.25;3.30;;;;;;;15.58;41.84;101784.97;5001663;28;20032;-60
2022/04/18 05:00:24;;;;;;;6.07;3.70;;;;;;;15.57;41.66;101785.81;5018000;28;20022;-60
2022/04/18 05:03:24;;;;;;;6.00;3.35;;;;;;;15.61;42.09;101791.13;5017235;28;20026;-60
2022/04/18 05:05:58;;;;;;;6.13;3.50;;;;;;;15.58;42.09;101784.97;5017700;28;20021;-60
2022/04/18 05:08:25;;;;;;;6.30;3.47;;;;;;;15.56;41.87;101790.13;5017491;28;20028;-60
2022/04/18 05:10:50;;;;;;;6.80;3.78;;;;;;;15.56;41.71;101787.53;5020081;28;20477;-60
2022/04/18 05:13:22;;;;;;;5.30;3.40;;;;;;;15.56;42.06;101782.34;5020750;28;20021;-60
2022/04/18 05:15:47;;;;;;;4.97;3.05;;;;;;;15.56;41.79;101787.53;5016488;28;20049;-61
2022/04/18 05:18:13;;;;;;;6.88;3.45;;;;;;;15.55;41.41;101792.69;5018164;28;20045;-61
2022/04/18 05:20:39;;;;;;;4.70;3.20;;;;;;;15.54;41.63;101803.94;5017495;28;20028;-61
2022/04/18 05:23:05;;;;;;;11.95;4.18;;;;;;;15.55;41.46;101795.31;5002877;28;20048;-61
2022/04/18 05:25:30;;;;;;;8.63;4.43;;;;;;;15.54;41.54;101790.94;5015571;28;20029;-61
2022/04/18 05:27:56;;;;;;;7.38;4.05;;;;;;;15.54;41.43;101790.94;5017704;28;20128;-61
2022/04/18 05:30:21;;;;;;;8.20;3.83;;;;;;;15.54;41.47;101793.53;5017120;28;20450;-61
2022/04/18 05:32:46;;;;;;;6.55;3.65;;;;;;;15.53;41.17;101791.78;5017458;28;20050;-61
2022/04/18 05:35:12;;;;;;;8.63;3.78;;;;;;;15.54;41.44;101793.53;5018820;28;20021;-61
2022/04/18 05:37:38;;;;;;;7.38;3.50;;;;;;;15.53;41.36;101799.56;5016664;28;20159;-61
2022/04/18 05:40:05;;;;;;;5.68;3.30;;;;;;;15.52;41.67;101798.69;5017861;28;20335;-61
2022/04/18 05:42:31;;;;;;;7.28;3.60;;;;;;;15.52;40.66;101798.69;5015258;28;20049;-60
2022/04/18 05:44:56;;;;;;;8.00;3.72;;;;;;;15.52;41.26;101796.09;5015455;28;20036;-61
2022/04/18 05:47:22;;;;;;;5.53;3.40;;;;;;;15.52;41.25;101796.09;5015115;28;20028;-61
2022/04/18 05:49:47;;;;;;;6.55;3.42;;;;;;;15.52;41.36;101796.09;5016901;28;20021;-61
2022/04/18 05:52:15;;;;;;;4.72;2.97;;;;;;;15.53;41.45;101802.16;5015099;28;20033;-61
2022/04/18 05:54:40;;;;;;;8.75;3.45;;;;;;;15.51;41.26;101793.47;5017432;28;20025;-61
2022/04/18 05:57:06;;;;;;;6.68;3.80;;;;;;;15.51;41.26;101794.34;4998316;28;20021;-61
2022/04/18 06:09:45;;;;;;;7.72;3.42;;;;;;;15.52;41.32;101797.81;5033874;22;20144;-60
2022/04/18 06:12:10;;;;;;;6.82;3.17;;;;;;;15.52;41.20;101790.00;5019799;28;20413;-61
2022/04/18 06:14:36;;;;;;;7.65;3.53;;;;;;;15.52;41.21;101805.59;5008891;28;20029;-61
2022/04/18 06:17:01;;;;;;;5.75;3.45;;;;;;;15.50;40.91;101797.78;5018147;28;20053;-61
2022/04/18 06:19:27;;;;;;;7.03;2.90;;;;;;;15.50;41.45;101804.69;5037680;28;20037;-61
2022/04/18 06:21:52;;;;;;;5.50;3.15;;;;;;;15.50;41.35;101804.69;5049776;28;20033;-61
2022/04/18 06:24:18;;;;;;;5.30;3.03;;;;;;;15.48;41.50;101807.25;5049818;28;20037;-61
2022/04/18 06:26:50;;;;;;;6.53;3.17;;;;;;;15.51;41.73;101811.66;5049620;28;20025;-61
2022/04/18 06:29:15;;;;;;;4.60;2.63;;;;;;;15.49;41.50;101814.19;5030797;28;20126;-61
2022/04/18 06:31:40;;;;;;;9.32;3.45;;;;;;;15.48;41.46;101808.13;5015994;28;20053;-61
2022/04/18 06:34:06;;;;;;;5.60;2.63;;;;;;;15.48;41.59;101808.13;5021064;28;20059;-61
2022/04/18 06:36:31;;;;;;;4.40;2.60;;;;;;;15.47;41.44;101806.38;5018503;28;20033;-61
2022/04/18 06:39:05;;;;;;;5.20;3.00;;;;;;;15.49;42.29;101806.41;5018239;28;20098;-61
2022/04/18 06:41:31;;;;;;;4.20;2.45;;;;;;;15.46;41.64;101806.34;5018756;28;20025;-61
2022/04/18 06:43:58;;;;;;;5.10;2.38;;;;;;;15.46;41.97;101806.34;5003606;28;20036;-61
2022/04/18 06:46:23;;;;;;;4.30;2.40;;;;;;;15.47;42.35;101801.19;5020648;28;20035;-62
2022/04/18 06:48:48;;;;;;;4.07;2.67;;;;;;;15.47;42.12;101808.97;5020981;28;20029;-61
2022/04/18 06:51:13;;;;;;;6.32;2.92;;;;;;;15.47;42.59;101803.78;5021786;28;20022;-61
2022/04/18 06:53:39;;;;;;;3.95;2.70;;;;;;;15.48;42.25;101805.53;5023152;28;20103;-61
2022/04/18 06:58:48;;;;;;;4.30;2.42;;;;;;;15.48;42.36;101802.06;5024388;28;20036;-61
2022/04/18 07:01:14;;;;;;;4.45;2.72;;;;;;;15.48;42.25;101799.47;5023540;28;20038;-61
2022/04/18 07:04:30;;;;;;;4.13;2.25;;;;;;;15.49;42.42;101806.41;5102440;27;20220;-59
2022/04/18 07:06:55;;;;;;;4.88;2.65;;;;;;;15.48;42.56;101805.53;5091285;28;21194;-59
2022/04/18 07:09:21;;;;;;;3.55;2.35;;;;;;;15.48;42.80;101808.13;5092191;28;20169;-59
2022/04/18 07:11:47;;;;;;;5.07;2.45;;;;;;;15.47;42.57;101803.78;5086371;28;20035;-59
2022/04/18 07:14:13;;;;;;;4.70;2.60;;;;;;;15.48;42.54;101799.47;5087740;28;20008;-59
2022/04/18 07:16:42;;;;;;;4.07;2.47;;;;;;;15.48;42.41;101799.47;5091900;28;20030;-59
2022/04/18 07:19:08;;;;;;;4.32;2.38;;;;;;;15.47;42.50;101798.56;5092291;27;20077;-59
2022/04/18 07:21:34;;;;;;;4.53;2.47;;;;;;;15.47;42.89;101798.56;5093626;28;20435;-59
2022/04/18 07:24:00;;;;;;;4.43;2.55;;;;;;;15.47;42.59;101798.56;5090843;28;20039;-59
2022/04/18 07:26:25;;;;;;;4.88;2.25;;;;;;;15.48;42.72;101800.34;5090826;28;20028;-59
2022/04/18 07:28:51;;;;;;;3.80;2.20;;;;;;;15.48;42.94;101804.66;5090527;28;20081;-59
2022/04/18 07:31:17;;;;;;;4.07;2.17;;;;;;;15.48;42.73;101804.66;5089168;28;20051;-59
2022/04/18 07:33:42;;;;;;;4.15;2.30;;;;;;;15.48;43.35;101797.75;5091051;28;20437;-59
2022/04/18 07:36:08;;;;;;;4.15;2.00;;;;;;;15.47;43.11;101795.13;5091007;28;20053;-59
2022/04/18 07:38:48;;;;;;;3.72;2.22;;;;;;;15.49;43.45;101790.81;5085309;28;20107;-59
2022/04/18 07:41:17;;;;;;;4.38;2.50;;;;;;;15.48;43.42;101789.94;5091596;28;20016;-59
2022/04/18 07:43:43;;;;;;;4.60;2.53;;;;;;;15.48;43.39;101789.94;5089394;28;20047;-59
2022/04/18 07:46:08;;;;;;;3.38;2.10;;;;;;;15.46;43.47;101781.22;5088142;28;20038;-59
2022/04/18 07:48:34;;;;;;;4.03;2.13;;;;;;;15.48;43.77;101784.75;5096079;28;20008;-59
2022/04/18 07:53:44;;;;;;;4.55;2.55;;;;;;;15.47;43.64;101777.78;5051577;28;20059;-59
2022/04/18 07:56:11;;;;;;;3.22;1.95;;;;;;;15.48;43.60;101782.16;5048257;28;20049;-59
2022/04/18 07:58:36;;;;;;;4.00;2.15;;;;;;;15.47;43.77;101777.78;5049823;28;20025;-59
2022/04/18 08:01:02;;;;;;;4.05;2.40;;;;;;;15.48;43.79;101774.38;5045474;28;20032;-59
2022/04/18 08:03:28;;;;;;;4.32;2.38;;;;;;;15.47;43.92;101780.38;5048666;28;20044;-59
2022/04/18 08:05:56;;;;;;;3.88;2.15;;;;;;;15.47;44.03;101777.78;5047817;28;20100;-59
2022/04/18 08:08:23;;;;;;;5.22;2.45;;;;;;;15.48;43.86;101784.75;5049696;28;20039;-59
2022/04/18 08:10:48;;;;;;;3.63;2.20;;;;;;;15.48;43.95;101781.28;5048079;28;20024;-59
2022/04/18 08:13:16;;;;;;;3.72;2.30;;;;;;;15.47;43.91;101777.78;5047749;28;20043;-59
2022/04/18 08:15:46;;;;;;;6.07;4.15;;;;;;;15.50;39.35;101779.59;5038781;28;20033;-58
2022/04/18 08:18:13;;;;;;;9.18;4.63;;;;;;;15.49;37.18;101780.41;5037942;28;20021;-58
